createdAt,value
2019-01-20T00:01:33.720Z,101287.13
2019-01-20T00:04:06.144Z,101286.30
2019-01-20T00:06:38.637Z,101281.09
2019-01-20T00:09:11.773Z,101279.80
2019-01-20T00:11:44.311Z,101276.78
2019-01-20T00:14:16.711Z,101284.28
2019-01-20T00:16:49.074Z,101280.77
2019-01-20T00:19:21.379Z,101284.70
2019-01-20T00:21:55.308Z,101285.91
2019-01-20T00:24:27.598Z,101283.73
2019-01-20T00:27:01.166Z,101280.14
2019-01-20T00:29:33.535Z,101278.79
2019-01-20T00:32:05.906Z,101275.81
2019-01-20T00:34:38.200Z,101278.55
2019-01-20T00:37:10.567Z,101274.66
2019-01-20T00:39:42.907Z,101273.34
2019-01-20T00:42:15.225Z,101277.86
2019-01-20T00:44:47.760Z,101268.94
2019-01-20T00:47:20.084Z,101270.67
2019-01-20T00:49:52.518Z,101272.55
2019-01-20T00:52:24.780Z,101268.66
2019-01-20T00:54:57.098Z,101270.22
2019-01-20T00:57:29.714Z,101271.47
2019-01-20T01:00:02.015Z,101267.72
2019-01-20T01:02:34.561Z,101268.55
2019-01-20T01:05:07.013Z,101273.70
2019-01-20T01:07:40.227Z,101265.47
2019-01-20T01:10:12.763Z,101270.84
2019-01-20T01:12:45.773Z,101270.88
2019-01-20T01:15:18.094Z,101269.91
2019-01-20T01:17:50.488Z,101267.72
2019-01-20T01:20:22.772Z,101269.98
2019-01-20T01:22:55.116Z,101273.94
2019-01-20T01:25:27.449Z,101277.58
2019-01-20T01:27:59.765Z,101268.86
2019-01-20T01:30:32.225Z,101265.36
2019-01-20T01:33:04.637Z,101270.28
2019-01-20T01:35:36.958Z,101271.73
2019-01-20T01:38:09.450Z,101270.52
2019-01-20T01:40:41.794Z,101271.80
2019-01-20T01:43:14.148Z,101271.89
2019-01-20T01:45:46.522Z,101265.37
2019-01-20T01:48:18.805Z,101270.16
2019-01-20T01:50:51.128Z,101263.53
2019-01-20T01:53:23.443Z,101271.34
2019-01-20T01:55:55.861Z,101266.20
2019-01-20T01:58:30.234Z,101268.00
2019-01-20T02:01:02.542Z,101267.55
2019-01-20T02:03:34.974Z,101261.80
2019-01-20T02:06:07.436Z,101260.99
2019-01-20T02:08:39.843Z,101264.95
2019-01-20T02:11:12.308Z,101258.88
2019-01-20T02:13:44.723Z,101254.92
2019-01-20T02:16:17.072Z,101255.02
2019-01-20T02:18:49.403Z,101249.77
2019-01-20T02:21:21.793Z,101245.40
2019-01-20T02:23:54.151Z,101238.42
2019-01-20T02:26:26.449Z,101234.41
2019-01-20T02:28:58.871Z,101238.84
2019-01-20T02:31:31.243Z,101232.70
2019-01-20T02:34:03.614Z,101237.59
2019-01-20T02:36:35.947Z,101238.13
2019-01-20T02:39:08.384Z,101239.06
2019-01-20T02:41:40.743Z,101233.92
2019-01-20T02:44:13.073Z,101234.84
2019-01-20T02:46:45.357Z,101229.52
2019-01-20T02:49:17.692Z,101237.91
2019-01-20T02:51:50.181Z,101234.88
2019-01-20T02:54:22.543Z,101236.30
2019-01-20T02:56:54.904Z,101236.26
2019-01-20T02:59:27.338Z,101235.03
2019-01-20T03:01:59.730Z,101234.20
2019-01-20T03:04:32.043Z,101227.13
2019-01-20T03:07:04.375Z,101227.61
2019-01-20T03:09:36.654Z,101235.45
2019-01-20T03:12:09.554Z,101233.23
2019-01-20T03:14:41.914Z,101229.70
2019-01-20T03:17:14.206Z,101226.20
2019-01-20T03:19:46.618Z,101222.63
2019-01-20T03:22:18.889Z,101225.78
2019-01-20T03:24:51.192Z,101220.84
2019-01-20T03:27:23.532Z,101226.65
2019-01-20T03:29:55.878Z,101220.54
2019-01-20T03:32:28.185Z,101219.64
2019-01-20T03:35:00.601Z,101225.72
2019-01-20T03:37:32.917Z,101227.01
2019-01-20T03:40:06.560Z,101226.52
2019-01-20T03:42:38.923Z,101221.67
2019-01-20T03:45:13.440Z,101216.82
2019-01-20T03:47:45.796Z,101215.02
2019-01-20T03:50:18.151Z,101214.16
2019-01-20T03:52:50.466Z,101215.38
2019-01-20T03:55:23.852Z,101211.00
2019-01-20T03:57:56.164Z,101208.43
2019-01-20T04:00:28.520Z,101210.62
2019-01-20T04:03:02.775Z,101204.06
2019-01-20T04:05:35.085Z,101202.26
2019-01-20T04:08:07.440Z,101204.83
2019-01-20T04:10:39.807Z,101206.18
2019-01-20T04:13:12.079Z,101206.63
2019-01-20T04:15:44.427Z,101203.55
2019-01-20T04:18:16.713Z,101207.53
2019-01-20T04:20:49.054Z,101201.42
2019-01-20T04:23:21.371Z,101194.77
2019-01-20T04:25:53.708Z,101200.63
2019-01-20T04:28:26.011Z,101198.92
2019-01-20T04:30:58.350Z,101191.11
2019-01-20T04:33:31.107Z,101197.31
2019-01-20T04:36:03.477Z,101207.81
2019-01-20T04:38:35.764Z,101206.50
2019-01-20T04:41:08.145Z,101205.60
2019-01-20T04:43:40.541Z,101199.84
2019-01-20T04:46:12.931Z,101198.44
2019-01-20T04:48:45.311Z,101202.71
2019-01-20T04:51:17.684Z,101209.23
2019-01-20T04:53:50.212Z,101198.23
2019-01-20T04:56:22.579Z,101195.83
2019-01-20T04:58:54.876Z,101194.34
2019-01-20T05:01:27.192Z,101192.35
2019-01-20T05:03:59.545Z,101196.31
2019-01-20T05:06:31.837Z,101205.25
2019-01-20T05:09:06.034Z,101197.69
2019-01-20T05:11:38.356Z,101200.46
2019-01-20T05:14:10.701Z,101208.78
2019-01-20T05:16:43.013Z,101206.76
2019-01-20T05:19:15.443Z,101203.48
2019-01-20T05:21:47.761Z,101198.66
2019-01-20T05:24:20.063Z,101195.57
2019-01-20T05:26:52.406Z,101203.06
2019-01-20T05:29:24.695Z,101193.55
2019-01-20T05:31:57.022Z,101195.41
2019-01-20T05:34:29.348Z,101191.52
2019-01-20T05:37:01.778Z,101189.00
2019-01-20T05:39:34.213Z,101194.23
2019-01-20T05:42:06.530Z,101202.14
2019-01-20T05:44:38.876Z,101195.94
2019-01-20T05:47:11.359Z,101200.05
2019-01-20T05:49:44.118Z,101201.09
2019-01-20T05:52:16.550Z,101194.45
2019-01-20T05:54:49.272Z,101190.61
2019-01-20T05:57:22.664Z,101185.77
2019-01-20T05:59:54.958Z,101178.77
2019-01-20T06:02:27.311Z,101191.56
2019-01-20T06:05:01.567Z,101190.70
2019-01-20T06:07:33.895Z,101187.14
2019-01-20T06:10:07.536Z,101188.94
2019-01-20T06:12:39.916Z,101183.19
2019-01-20T06:15:19.111Z,101189.77
2019-01-20T06:17:51.458Z,101194.14
2019-01-20T06:20:23.783Z,101189.23
2019-01-20T06:22:56.157Z,101187.11
2019-01-20T06:25:28.470Z,101182.69
2019-01-20T06:28:00.828Z,101184.42
2019-01-20T06:30:33.936Z,101184.87
2019-01-20T06:33:07.766Z,101181.81
2019-01-20T06:35:40.091Z,101185.34
2019-01-20T06:38:12.492Z,101186.63
2019-01-20T06:40:44.812Z,101184.03
2019-01-20T06:43:17.137Z,101186.61
2019-01-20T06:45:49.502Z,101194.59
2019-01-20T06:48:21.956Z,101195.94
2019-01-20T06:50:54.299Z,101190.28
2019-01-20T06:53:26.659Z,101195.12
2019-01-20T06:55:59.123Z,101206.05
2019-01-20T06:58:31.686Z,101202.49
2019-01-20T07:01:04.334Z,101206.47
2019-01-20T07:03:36.717Z,101199.86
2019-01-20T07:06:10.132Z,101202.05
2019-01-20T07:08:42.475Z,101202.73
2019-01-20T07:11:14.839Z,101204.50
2019-01-20T07:13:47.352Z,101210.16
2019-01-20T07:16:19.693Z,101214.41
2019-01-20T07:18:52.117Z,101213.96
2019-01-20T07:21:24.454Z,101218.84
2019-01-20T07:23:57.607Z,101222.28
2019-01-20T07:26:38.251Z,101221.39
2019-01-20T07:29:12.131Z,101229.56
2019-01-20T07:31:58.328Z,101230.84
2019-01-20T07:34:31.974Z,101236.05
2019-01-20T07:37:04.940Z,101238.66
2019-01-20T07:39:37.324Z,101238.57
2019-01-20T07:42:13.512Z,101234.08
2019-01-20T07:44:45.965Z,101234.79
2019-01-20T07:47:20.038Z,101240.89
2019-01-20T07:49:52.471Z,101245.66
2019-01-20T07:52:24.885Z,101246.87
2019-01-20T07:54:57.277Z,101239.55
2019-01-20T07:57:29.695Z,101243.30
2019-01-20T08:00:12.535Z,101251.05
2019-01-20T08:02:45.126Z,101256.55
2019-01-20T08:05:18.147Z,101254.98
2019-01-20T08:07:52.102Z,101261.92
2019-01-20T08:10:27.087Z,101266.95
2019-01-20T08:13:00.674Z,101258.83
2019-01-20T08:15:33.393Z,101263.20
2019-01-20T08:18:05.957Z,101259.10
2019-01-20T08:20:38.669Z,101255.41
2019-01-20T08:23:11.017Z,101260.09
2019-01-20T08:25:43.339Z,101264.88
2019-01-20T08:28:15.774Z,101267.94
2019-01-20T08:30:49.229Z,101263.59
2019-01-20T08:33:21.577Z,101267.05
2019-01-20T08:35:53.948Z,101269.56
2019-01-20T08:38:26.275Z,101267.94
2019-01-20T08:40:58.644Z,101275.19
2019-01-20T08:43:32.160Z,101279.11
2019-01-20T08:46:27.324Z,101284.13
2019-01-20T08:49:02.295Z,101278.94
2019-01-20T08:51:37.269Z,101284.87
2019-01-20T08:54:12.684Z,101283.12
2019-01-20T08:56:46.443Z,101282.87
